createdAt,value
2018-02-02T00:00:31.906Z,6.17
2018-02-02T00:02:59.566Z,6.33
2018-02-02T00:05:27.102Z,6.39
2018-02-02T00:07:54.635Z,6.31
2018-02-02T00:10:22.295Z,6.30
2018-02-02T00:12:49.830Z,6.29
2018-02-02T00:15:17.370Z,6.31
2018-02-02T00:17:44.902Z,6.36
2018-02-02T00:20:12.445Z,6.35
2018-02-02T00:22:39.984Z,6.41
2018-02-02T00:25:07.530Z,6.49
2018-02-02T00:27:35.071Z,6.54
2018-02-02T00:30:02.630Z,6.52
2018-02-02T00:32:30.167Z,6.50
2018-02-02T00:34:57.709Z,6.51
2018-02-02T00:37:25.242Z,6.57
2018-02-02T00:39:53.022Z,6.68
2018-02-02T00:42:20.558Z,6.70
2018-02-02T00:44:48.258Z,6.68
2018-02-02T00:47:15.790Z,6.65
2018-02-02T00:49:43.336Z,6.59
2018-02-02T00:52:10.909Z,6.44
2018-02-02T00:54:38.631Z,6.42
2018-02-02T00:57:06.348Z,6.43
2018-02-02T00:59:33.905Z,6.48
2018-02-02T01:02:01.476Z,6.58
2018-02-02T01:04:29.102Z,6.49
2018-02-02T01:06:56.722Z,6.37
2018-02-02T01:09:24.258Z,6.30
2018-02-02T01:11:51.788Z,6.25
2018-02-02T01:14:19.471Z,6.19
2018-02-02T01:16:47.009Z,6.11
2018-02-02T01:19:14.549Z,6.06
2018-02-02T01:21:42.086Z,6.03
2018-02-02T01:24:09.855Z,6.04
2018-02-02T01:26:37.393Z,6.10
2018-02-02T01:29:04.933Z,6.14
2018-02-02T01:31:32.474Z,6.09
2018-02-02T01:34:00.006Z,6.09
2018-02-02T01:36:27.551Z,6.00
2018-02-02T01:38:55.081Z,6.02
2018-02-02T01:41:22.870Z,5.98
2018-02-02T01:43:50.489Z,6.03
2018-02-02T01:46:18.307Z,6.08
2018-02-02T01:48:45.921Z,6.17
2018-02-02T01:51:13.614Z,6.20
2018-02-02T01:53:41.258Z,6.21
2018-02-02T01:56:09.046Z,6.24
2018-02-02T01:58:36.699Z,6.28
2018-02-02T02:01:04.316Z,6.25
2018-02-02T02:03:31.924Z,6.34
2018-02-02T02:05:59.453Z,6.29
2018-02-02T02:08:27.022Z,6.35
2018-02-02T02:10:54.558Z,6.37
2018-02-02T02:13:22.150Z,6.29
2018-02-02T02:15:49.722Z,6.20
2018-02-02T02:18:17.436Z,5.90
2018-02-02T02:20:44.977Z,5.69
2018-02-02T02:23:12.516Z,5.57
2018-02-02T02:25:40.295Z,5.42
2018-02-02T02:28:07.834Z,5.36
2018-02-02T02:30:35.426Z,5.31
2018-02-02T02:33:03.014Z,5.35
2018-02-02T02:35:30.551Z,5.31
2018-02-02T02:37:58.094Z,5.26
2018-02-02T02:40:25.790Z,5.26
2018-02-02T02:42:53.337Z,5.35
2018-02-02T02:45:21.132Z,5.39
2018-02-02T02:47:48.851Z,5.43
2018-02-02T02:50:16.386Z,5.37
2018-02-02T02:52:43.986Z,5.31
2018-02-02T02:55:11.661Z,5.27
2018-02-02T02:57:39.198Z,5.24
2018-02-02T03:00:06.784Z,5.27
2018-02-02T03:02:34.327Z,5.36
2018-02-02T03:05:01.920Z,5.48
2018-02-02T03:07:29.444Z,5.50
2018-02-02T03:09:57.005Z,5.49
2018-02-02T03:12:24.551Z,5.55
2018-02-02T03:14:52.130Z,5.60
2018-02-02T03:17:19.664Z,5.64
2018-02-02T03:19:47.202Z,5.65
2018-02-02T03:22:14.782Z,5.63
2018-02-02T03:24:42.411Z,5.62
2018-02-02T03:27:09.933Z,5.60
2018-02-02T03:29:37.486Z,5.58
2018-02-02T03:32:05.031Z,5.46
2018-02-02T03:34:32.646Z,5.37
2018-02-02T03:37:00.179Z,5.33
2018-02-02T03:39:27.794Z,5.37
2018-02-02T03:41:55.364Z,5.43
2018-02-02T03:44:22.914Z,5.42
2018-02-02T03:46:50.458Z,5.51
2018-02-02T03:49:18.170Z,5.64
2018-02-02T03:51:45.918Z,5.79
2018-02-02T03:54:13.454Z,5.88
2018-02-02T03:56:41.001Z,5.97
2018-02-02T03:59:08.554Z,6.24
2018-02-02T04:01:36.173Z,6.49
2018-02-02T04:04:03.722Z,6.67
2018-02-02T04:06:31.254Z,6.75
2018-02-02T04:08:58.830Z,6.65
2018-02-02T04:11:26.361Z,6.52
2018-02-02T04:13:54.081Z,6.36
2018-02-02T04:16:21.680Z,6.33
2018-02-02T04:18:49.365Z,6.42
2018-02-02T04:21:17.027Z,6.48
2018-02-02T04:23:44.566Z,6.57
2018-02-02T04:26:12.098Z,6.56
2018-02-02T04:28:39.638Z,6.61
2018-02-02T04:31:07.496Z,6.72
2018-02-02T04:33:35.214Z,6.85
2018-02-02T04:36:04.684Z,6.94
2018-02-02T04:38:32.239Z,6.95
2018-02-02T04:40:59.765Z,6.94
2018-02-02T04:43:27.309Z,7.01
2018-02-02T04:45:54.854Z,7.09
2018-02-02T04:48:22.454Z,7.08
2018-02-02T04:50:50.145Z,7.05
2018-02-02T04:53:17.863Z,6.96
2018-02-02T04:55:45.582Z,6.95
2018-02-02T04:58:13.154Z,6.87
2018-02-02T05:00:40.714Z,6.82
2018-02-02T05:03:08.337Z,6.86
2018-02-02T05:05:35.925Z,6.97
2018-02-02T05:08:03.526Z,7.04
2018-02-02T05:10:31.288Z,7.11
2018-02-02T05:12:58.833Z,7.10
2018-02-02T05:15:26.393Z,7.11
2018-02-02T05:17:53.972Z,7.07
2018-02-02T05:20:21.724Z,7.05
2018-02-02T05:22:49.314Z,7.08
2018-02-02T05:25:17.002Z,7.07
2018-02-02T05:27:44.618Z,7.06
2018-02-02T05:30:12.289Z,6.96
2018-02-02T05:32:40.005Z,6.96
2018-02-02T05:35:07.594Z,6.99
2018-02-02T05:37:35.134Z,7.00
2018-02-02T05:40:02.721Z,6.94
2018-02-02T05:42:30.311Z,6.87
2018-02-02T05:44:57.951Z,6.80
2018-02-02T05:47:25.493Z,6.73
2018-02-02T05:49:53.042Z,6.71
2018-02-02T05:52:20.760Z,6.65
2018-02-02T05:54:48.370Z,6.63
2018-02-02T05:57:16.028Z,6.68
2018-02-02T05:59:43.558Z,6.49
2018-02-02T06:02:11.363Z,6.40
2018-02-02T06:04:38.930Z,6.31
2018-02-02T06:07:06.490Z,6.33
2018-02-02T06:09:34.026Z,6.27
2018-02-02T06:12:01.834Z,6.16
2018-02-02T06:14:29.365Z,6.08
2018-02-02T06:16:56.970Z,6.17
2018-02-02T06:19:36.531Z,6.24
2018-02-02T06:22:04.349Z,6.31
2018-02-02T06:24:32.066Z,6.36
2018-02-02T06:26:59.622Z,6.44
2018-02-02T06:29:27.403Z,6.54
2018-02-02T06:31:54.978Z,6.62
2018-02-02T06:34:22.509Z,6.75
2018-02-02T06:36:50.086Z,6.85
2018-02-02T06:39:17.714Z,6.96
2018-02-02T06:41:45.282Z,7.10
2018-02-02T06:44:12.901Z,7.25
2018-02-02T06:46:40.506Z,7.40
2018-02-02T06:49:08.046Z,7.47
2018-02-02T06:51:35.767Z,7.64
2018-02-02T06:54:03.487Z,7.74
2018-02-02T06:56:31.026Z,7.81
2018-02-02T06:58:58.579Z,7.90
2018-02-02T07:01:26.229Z,7.99
2018-02-02T07:03:53.959Z,8.13
2018-02-02T07:06:21.522Z,8.39
2018-02-02T07:08:49.099Z,8.63
2018-02-02T07:11:17.669Z,8.82
2018-02-02T07:13:45.428Z,9.09
2018-02-02T07:16:13.601Z,9.48
2018-02-02T07:18:41.158Z,9.91
2018-02-02T07:21:08.806Z,10.70
2018-02-02T07:23:36.404Z,11.70
2018-02-02T07:26:03.949Z,13.07
2018-02-02T07:28:31.493Z,14.60
2018-02-02T07:30:59.030Z,16.17
2018-02-02T07:33:26.732Z,17.35
2018-02-02T07:35:54.477Z,18.37
2018-02-02T07:38:22.022Z,18.78
2018-02-02T07:40:49.622Z,19.12
2018-02-02T07:43:17.344Z,19.59
2018-02-02T07:45:45.075Z,19.61
2018-02-02T07:48:12.830Z,19.99
2018-02-02T07:50:40.378Z,20.19
2018-02-02T07:53:07.911Z,20.21
2018-02-02T07:55:35.506Z,20.27
2018-02-02T07:58:03.306Z,20.31
2018-02-02T08:00:31.471Z,20.48
2018-02-02T08:02:59.137Z,20.10
2018-02-02T08:05:26.671Z,19.43
2018-02-02T08:07:54.214Z,19.42
2018-02-02T08:10:21.775Z,19.39
2018-02-02T08:12:49.357Z,19.39
2018-02-02T08:15:17.091Z,18.82
2018-02-02T08:17:44.714Z,18.06
2018-02-02T08:20:12.263Z,17.52
2018-02-02T08:22:39.802Z,17.12
2018-02-02T08:25:07.354Z,16.67
2018-02-02T08:27:35.015Z,16.46
2018-02-02T08:30:02.628Z,16.46
2018-02-02T08:32:30.174Z,16.48
2018-02-02T08:34:57.767Z,16.58
2018-02-02T08:37:25.318Z,16.77
2018-02-02T08:39:53.007Z,16.70
2018-02-02T08:42:20.727Z,16.94
2018-02-02T08:44:48.270Z,17.14
2018-02-02T08:47:15.858Z,17.60
2018-02-02T08:49:43.450Z,18.09
2018-02-02T08:52:11.085Z,18.27
2018-02-02T08:54:38.808Z,18.72
2018-02-02T08:57:06.434Z,18.94
2018-02-02T08:59:33.990Z,19.13
2018-02-02T09:02:06.694Z,19.58
2018-02-02T09:04:34.290Z,20.10
2018-02-02T09:07:01.836Z,20.32
2018-02-02T09:09:29.390Z,20.17
2018-02-02T09:11:56.939Z,19.87
2018-02-02T09:14:24.551Z,20.06
2018-02-02T09:16:52.110Z,20.23
2018-02-02T09:19:19.642Z,20.28
2018-02-02T09:21:53.949Z,20.47
2018-02-02T09:24:21.523Z,20.64
2018-02-02T09:26:49.187Z,21.21
2018-02-02T09:29:16.733Z,21.64
2018-02-02T09:31:44.270Z,22.32
2018-02-02T09:34:11.866Z,22.73
2018-02-02T09:36:39.554Z,23.07
2018-02-02T09:39:07.126Z,23.35
2018-02-02T09:41:34.675Z,23.75
2018-02-02T09:44:02.360Z,23.66
2018-02-02T09:46:30.030Z,23.60
2018-02-02T09:48:57.770Z,23.59
2018-02-02T09:51:25.735Z,23.61
2018-02-02T09:53:53.286Z,23.60
2018-02-02T09:56:21.100Z,23.55
2018-02-02T09:58:48.819Z,23.58
2018-02-02T10:01:16.891Z,23.37
2018-02-02T10:03:45.026Z,23.17
2018-02-02T10:06:12.669Z,22.25
2018-02-02T10:08:40.261Z,21.56
2018-02-02T10:11:07.838Z,21.11
2018-02-02T10:13:35.415Z,20.91
2018-02-02T10:16:02.958Z,20.61
2018-02-02T10:18:30.502Z,20.74
2018-02-02T10:20:58.059Z,20.37
2018-02-02T10:23:25.799Z,19.76
2018-02-02T10:25:53.517Z,19.80
2018-02-02T10:28:21.062Z,19.84
2018-02-02T10:30:48.654Z,19.76
2018-02-02T10:33:16.200Z,19.76
2018-02-02T10:35:43.747Z,19.60
2018-02-02T10:38:11.302Z,19.13
2018-02-02T10:40:38.886Z,18.84
2018-02-02T10:43:06.642Z,18.76
2018-02-02T10:45:34.173Z,18.69
2018-02-02T10:48:01.782Z,18.52
2018-02-02T10:50:29.314Z,18.42
2018-02-02T10:52:56.986Z,18.42
2018-02-02T10:55:24.731Z,18.42
2018-02-02T10:57:52.304Z,18.43
2018-02-02T11:00:19.880Z,18.30
2018-02-02T11:02:52.970Z,18.44
2018-02-02T11:05:20.601Z,18.68
2018-02-02T11:07:48.171Z,19.02
2018-02-02T11:10:15.757Z,19.31
2018-02-02T11:12:43.474Z,19.22
2018-02-02T11:15:11.095Z,19.06
2018-02-02T11:17:39.082Z,18.74
2018-02-02T11:20:06.611Z,18.52
2018-02-02T11:22:34.269Z,18.45
2018-02-02T11:25:01.971Z,18.47
2018-02-02T11:27:31.048Z,18.33
2018-02-02T11:30:03.925Z,18.17
2018-02-02T11:32:31.501Z,17.91
2018-02-02T11:34:59.078Z,17.99
2018-02-02T11:37:27.535Z,18.25
2018-02-02T11:39:55.142Z,18.42
2018-02-02T11:42:22.818Z,18.71
2018-02-02T11:44:50.426Z,18.75
2018-02-02T11:47:18.010Z,19.10
2018-02-02T11:49:45.675Z,19.37
2018-02-02T11:52:13.213Z,19.61
2018-02-02T11:54:40.770Z,19.37
2018-02-02T11:57:08.356Z,18.87
2018-02-02T11:59:35.890Z,18.53
2018-02-02T12:02:03.432Z,18.25
2018-02-02T12:04:31.065Z,18.11
2018-02-02T12:06:58.799Z,18.16
2018-02-02T12:09:26.325Z,18.23
2018-02-02T12:11:53.925Z,18.13
2018-02-02T12:14:21.459Z,17.91
2018-02-02T12:16:49.058Z,17.64
2018-02-02T12:19:16.630Z,17.50
2018-02-02T12:21:46.181Z,17.45
2018-02-02T12:24:23.651Z,17.43
2018-02-02T12:26:56.398Z,17.44
2018-02-02T12:32:47.599Z,17.53
2018-02-02T12:35:15.872Z,17.64
2018-02-02T12:37:43.459Z,17.63
2018-02-02T12:40:11.043Z,17.52
2018-02-02T12:42:38.805Z,17.44
2018-02-02T12:45:06.398Z,17.38
2018-02-02T12:47:35.946Z,17.18
2018-02-02T12:50:07.410Z,17.13
2018-02-02T12:52:35.195Z,17.00
2018-02-02T12:55:02.738Z,16.80
2018-02-02T12:57:30.293Z,16.63
2018-02-02T12:59:57.832Z,16.50
2018-02-02T13:02:25.406Z,16.43
2018-02-02T13:04:52.941Z,16.36
2018-02-02T13:07:20.802Z,16.32
2018-02-02T13:09:48.345Z,16.26
2018-02-02T13:12:15.881Z,16.20
2018-02-02T13:14:43.426Z,16.15
2018-02-02T13:17:10.962Z,16.14
2018-02-02T13:19:38.516Z,16.15
2018-02-02T13:22:06.058Z,16.11
2018-02-02T13:24:33.827Z,16.05
2018-02-02T13:27:01.370Z,15.98
2018-02-02T13:29:29.140Z,15.89
2018-02-02T13:31:56.980Z,15.85
2018-02-02T13:34:24.518Z,15.87
2018-02-02T13:36:52.110Z,15.89
2018-02-02T13:39:19.739Z,15.92
2018-02-02T13:41:47.285Z,15.88
2018-02-02T13:44:14.833Z,15.88
2018-02-02T13:46:42.378Z,15.81
2018-02-02T13:49:10.008Z,15.75
2018-02-02T13:51:37.577Z,15.64
2018-02-02T13:54:05.122Z,15.63
2018-02-02T13:56:32.658Z,15.62
2018-02-02T13:59:00.210Z,15.58
2018-02-02T14:01:27.752Z,15.56
2018-02-02T14:03:55.288Z,15.60
2018-02-02T14:06:22.834Z,15.66
2018-02-02T14:08:50.370Z,15.69
2018-02-02T14:11:17.922Z,15.66
2018-02-02T14:13:45.474Z,15.64
2018-02-02T14:16:13.205Z,15.62
2018-02-02T14:18:40.758Z,15.55
2018-02-02T14:21:08.539Z,15.47
2018-02-02T14:23:36.112Z,15.42
2018-02-02T14:26:03.690Z,15.34
2018-02-02T14:28:31.248Z,15.30
2018-02-02T14:30:58.796Z,15.23
2018-02-02T14:33:26.524Z,15.21
2018-02-02T14:35:54.342Z,15.20
2018-02-02T14:38:21.946Z,15.11
2018-02-02T14:40:49.490Z,15.04
2018-02-02T14:43:17.034Z,15.02
2018-02-02T14:45:44.597Z,14.99
2018-02-02T14:48:12.137Z,14.97
2018-02-02T14:50:39.690Z,14.99
2018-02-02T14:53:07.466Z,14.94
2018-02-02T14:55:35.007Z,14.92
2018-02-02T14:58:02.764Z,14.93
2018-02-02T15:00:30.330Z,14.95
2018-02-02T15:02:57.882Z,14.96
2018-02-02T15:05:25.420Z,14.84
2018-02-02T15:07:52.982Z,14.77
2018-02-02T15:10:20.530Z,14.70
2018-02-02T15:12:48.172Z,14.67
2018-02-02T15:15:15.722Z,14.65
2018-02-02T15:17:43.255Z,14.62
2018-02-02T15:20:10.848Z,14.62
2018-02-02T15:25:40.146Z,14.59
2018-02-02T15:28:07.935Z,14.52
2018-02-02T15:30:35.486Z,14.44
2018-02-02T15:33:03.034Z,14.31
2018-02-02T15:35:30.690Z,14.32
2018-02-02T15:37:58.239Z,14.22
2018-02-02T15:40:26.025Z,14.24
2018-02-02T15:42:53.634Z,14.21
2018-02-02T15:45:21.267Z,14.16
2018-02-02T15:47:48.866Z,14.06
2018-02-02T15:50:16.430Z,14.01
2018-02-02T15:52:43.966Z,13.96
2018-02-02T15:55:11.521Z,13.95
2018-02-02T15:57:39.249Z,13.95
2018-02-02T16:00:07.014Z,13.94
2018-02-02T16:02:34.559Z,13.86
2018-02-02T16:05:02.098Z,13.88
2018-02-02T16:07:29.823Z,13.90
2018-02-02T16:09:57.441Z,13.87
2018-02-02T16:12:25.159Z,13.79
2018-02-02T16:14:52.699Z,13.79
2018-02-02T16:17:20.290Z,13.74
2018-02-02T16:19:47.826Z,13.74
2018-02-02T16:22:15.534Z,13.70
2018-02-02T16:24:43.097Z,13.69
2018-02-02T16:27:10.643Z,13.72
2018-02-02T16:29:38.210Z,13.65
2018-02-02T16:32:05.754Z,13.62
2018-02-02T16:34:33.624Z,13.62
2018-02-02T16:37:01.412Z,13.61
2018-02-02T16:39:29.046Z,13.56
2018-02-02T16:41:56.645Z,13.51
2018-02-02T16:44:24.226Z,13.56
2018-02-02T16:46:51.827Z,13.56
2018-02-02T16:49:19.410Z,13.52
2018-02-02T16:51:47.043Z,13.54
2018-02-02T16:54:14.643Z,13.54
2018-02-02T16:56:42.226Z,13.51
2018-02-02T16:59:09.863Z,13.52
2018-02-02T17:01:37.523Z,13.54
2018-02-02T17:04:05.170Z,13.50
2018-02-02T17:06:32.801Z,13.44
2018-02-02T17:09:00.383Z,13.43
2018-02-02T17:11:27.990Z,13.43
2018-02-02T17:13:55.598Z,13.49
2018-02-02T17:16:23.195Z,13.49
2018-02-02T17:18:50.873Z,13.47
2018-02-02T17:21:18.444Z,13.42
2018-02-02T17:23:46.179Z,13.40
2018-02-02T17:26:13.896Z,13.44
2018-02-02T17:28:41.473Z,13.40
2018-02-02T17:31:09.014Z,13.43
2018-02-02T17:33:36.655Z,13.40
2018-02-02T17:36:04.369Z,13.39
2018-02-02T17:38:31.934Z,13.39
2018-02-02T17:40:59.667Z,13.40
2018-02-02T17:43:27.390Z,13.39
2018-02-02T17:45:54.929Z,13.41
2018-02-02T17:48:22.533Z,13.36
2018-02-02T17:50:50.122Z,13.36
2018-02-02T17:53:17.698Z,13.33
2018-02-02T17:55:45.242Z,13.29
2018-02-02T17:58:12.927Z,13.28
2018-02-02T18:00:45.883Z,13.26
2018-02-02T18:03:15.926Z,13.22
2018-02-02T18:05:43.614Z,13.14
2018-02-02T18:08:11.205Z,13.06
2018-02-02T18:10:39.052Z,13.06
2018-02-02T18:13:06.654Z,13.16
2018-02-02T18:15:34.237Z,13.18
2018-02-02T18:18:01.783Z,13.23
2018-02-02T18:20:29.342Z,13.24
2018-02-02T18:22:57.013Z,13.23
2018-02-02T18:25:24.561Z,13.25
2018-02-02T18:27:52.102Z,13.23
2018-02-02T18:30:19.794Z,13.17
2018-02-02T18:32:47.344Z,13.11
2018-02-02T18:35:15.022Z,13.18
2018-02-02T18:37:42.585Z,13.18
2018-02-02T18:40:10.339Z,13.21
2018-02-02T18:42:37.886Z,13.21
2018-02-02T18:45:05.446Z,13.18
2018-02-02T18:47:33.042Z,13.18
2018-02-02T18:50:00.731Z,13.27
2018-02-02T18:52:28.278Z,13.31
2018-02-02T18:54:55.825Z,13.28
2018-02-02T18:57:23.582Z,13.21
2018-02-02T18:59:51.403Z,13.07
2018-02-02T19:02:19.126Z,13.08
2018-02-02T19:04:46.734Z,13.05
2018-02-02T19:07:14.275Z,13.06
2018-02-02T19:09:41.864Z,13.03
2018-02-02T19:12:09.422Z,13.05
2018-02-02T19:14:37.000Z,13.01
2018-02-02T19:17:04.726Z,12.96
2018-02-02T19:19:32.271Z,13.03
2018-02-02T19:22:00.062Z,13.15
2018-02-02T19:24:27.607Z,13.13
2018-02-02T19:26:55.226Z,13.17
2018-02-02T19:29:22.944Z,13.16
2018-02-02T19:31:50.634Z,13.23
2018-02-02T19:34:18.229Z,13.26
2018-02-02T19:36:45.811Z,13.26
2018-02-02T19:39:13.454Z,13.26
2018-02-02T19:41:41.005Z,13.28
2018-02-02T19:44:08.627Z,13.26
2018-02-02T19:46:36.441Z,13.30
2018-02-02T19:49:04.014Z,13.34
2018-02-02T19:51:31.562Z,13.36
2018-02-02T19:53:59.176Z,13.35
2018-02-02T19:56:26.770Z,13.28
2018-02-02T19:58:54.369Z,13.30
2018-02-02T20:01:21.911Z,13.33
2018-02-02T20:03:49.665Z,13.31
2018-02-02T20:06:17.283Z,13.29
2018-02-02T20:08:44.974Z,13.22
2018-02-02T20:11:12.548Z,13.17
2018-02-02T20:13:40.238Z,13.17
2018-02-02T20:16:07.830Z,13.20
2018-02-02T20:18:35.454Z,13.19
2018-02-02T20:21:03.165Z,13.22
2018-02-02T20:23:30.909Z,13.18
2018-02-02T20:25:58.502Z,13.09
2018-02-02T20:28:26.038Z,13.13
2018-02-02T20:30:53.637Z,13.26
2018-02-02T20:33:21.178Z,13.30
2018-02-02T20:35:48.731Z,13.35
2018-02-02T20:38:16.415Z,13.35
2018-02-02T20:40:43.974Z,13.37
2018-02-02T20:43:11.518Z,13.42
2018-02-02T20:45:39.064Z,13.39
2018-02-02T20:48:06.790Z,13.36
2018-02-02T20:50:34.497Z,13.28
2018-02-02T20:53:02.098Z,13.23
2018-02-02T20:55:29.941Z,13.26
2018-02-02T20:57:57.687Z,13.30
2018-02-02T21:00:25.479Z,13.34
2018-02-02T21:02:53.078Z,13.44
2018-02-02T21:05:20.815Z,13.46
2018-02-02T21:07:48.358Z,13.46
2018-02-02T21:10:15.958Z,13.42
2018-02-02T21:12:43.570Z,13.42
2018-02-02T21:15:11.176Z,13.44
2018-02-02T21:17:38.733Z,13.40
2018-02-02T21:20:06.342Z,13.36
2018-02-02T21:22:33.885Z,13.29
2018-02-02T21:25:01.426Z,13.23
2018-02-02T21:27:28.986Z,13.18
2018-02-02T21:29:56.534Z,13.16
2018-02-02T21:32:24.141Z,13.17
2018-02-02T21:34:51.686Z,13.17
2018-02-02T21:37:19.405Z,13.18
2018-02-02T21:39:46.970Z,13.15
2018-02-02T21:42:14.510Z,13.08
2018-02-02T21:44:42.202Z,13.04
2018-02-02T21:47:09.754Z,12.96
2018-02-02T21:49:37.294Z,12.96
2018-02-02T21:52:04.846Z,12.92
2018-02-02T21:54:32.394Z,12.87
2018-02-02T21:56:59.987Z,12.80
2018-02-02T21:59:27.806Z,12.80
2018-02-02T22:01:55.437Z,12.79
2018-02-02T22:04:23.009Z,12.76
2018-02-02T22:06:50.561Z,12.75
2018-02-02T22:09:18.111Z,12.72
2018-02-02T22:11:45.798Z,12.66
2018-02-02T22:14:13.355Z,12.65
2018-02-02T22:16:41.034Z,12.60
2018-02-02T22:19:08.618Z,12.58
2018-02-02T22:21:36.261Z,12.55
2018-02-02T22:24:03.818Z,12.42
2018-02-02T22:26:31.394Z,12.37
2018-02-02T22:28:58.970Z,12.34
2018-02-02T22:31:26.501Z,12.30
2018-02-02T22:33:54.051Z,12.30
2018-02-02T22:36:21.664Z,12.30
2018-02-02T22:38:49.222Z,12.30
2018-02-02T22:41:16.767Z,12.18
2018-02-02T22:43:44.402Z,12.11
2018-02-02T22:46:11.941Z,12.07
2018-02-02T22:48:39.489Z,12.22
2018-02-02T22:51:07.028Z,12.44
2018-02-02T22:53:34.647Z,12.78
2018-02-02T22:56:02.190Z,12.95
2018-02-02T22:58:29.746Z,13.13
2018-02-02T23:00:57.290Z,13.21
2018-02-02T23:03:24.835Z,13.19
2018-02-02T23:05:52.406Z,13.17
2018-02-02T23:08:19.950Z,13.08
2018-02-02T23:10:47.522Z,13.14
2018-02-02T23:13:15.076Z,13.16
2018-02-02T23:15:42.629Z,13.13
2018-02-02T23:18:10.185Z,13.07
2018-02-02T23:20:37.783Z,13.01
2018-02-02T23:23:05.338Z,12.94
2018-02-02T23:25:32.874Z,12.93
2018-02-02T23:28:00.462Z,12.94
2018-02-02T23:30:28.008Z,12.92
2018-02-02T23:32:55.581Z,12.87
2018-02-02T23:35:23.189Z,12.84
2018-02-02T23:37:50.730Z,12.79
2018-02-02T23:40:18.290Z,12.88
2018-02-02T23:42:45.822Z,12.85
2018-02-02T23:45:13.385Z,12.77
2018-02-02T23:47:40.943Z,12.71
2018-02-02T23:50:08.514Z,12.66
2018-02-02T23:52:36.062Z,12.56
2018-02-02T23:55:03.618Z,12.49
2018-02-02T23:57:31.241Z,12.46
2018-02-02T23:59:58.868Z,12.42
